Time;durP1;ratioP1;P1;durP2;ratioP2;P2;SDS_P1;SDS_P2;PMS_P1;PMS_P2;Temp;Humidity;BMP_temperature;BMP_pressure;BME280_temperature;BME280_humidity;BME280_pressure;Samples;Min_cycle;Max_cycle;Signal;HPM_P1;HPM_P2
2023/10/17 00:00:25;;;;;;;18.02;14.18;;;8.40;99.90;;;;;;2100870;28;20033;-73
2023/10/17 00:01:32;;;;;;;15.45;13.27;;;8.40;99.90;;;;;;2090832;28;20099;-72
2023/10/17 00:02:34;;;;;;;12.98;11.73;;;8.40;99.90;;;;;;2100254;28;20020;-72
2023/10/17 00:03:37;;;;;;;14.98;12.48;;;8.40;99.90;;;;;;2106250;28;20028;-72
2023/10/17 00:04:41;;;;;;;13.20;11.55;;;8.40;99.90;;;;;;2097326;28;20074;-72
2023/10/17 00:05:42;;;;;;;13.07;10.88;;;8.40;99.90;;;;;;2099035;28;20021;-71
2023/10/17 00:06:43;;;;;;;13.98;9.98;;;8.40;99.90;;;;;;2099383;28;20041;-72
2023/10/17 00:07:45;;;;;;;12.88;10.25;;;8.40;99.90;;;;;;2099456;28;20483;-72
2023/10/17 00:08:50;;;;;;;11.95;10.75;;;8.40;99.90;;;;;;2099191;28;20024;-71
2023/10/17 00:09:51;;;;;;;12.32;10.60;;;8.40;99.90;;;;;;2098401;28;20034;-71
2023/10/17 00:10:51;;;;;;;13.05;11.45;;;8.40;99.90;;;;;;2098190;28;20027;-72
2023/10/17 00:11:58;;;;;;;13.20;11.85;;;8.40;99.90;;;;;;2098478;28;20037;-74
2023/10/17 00:13:18;;;;;;;12.35;10.85;;;8.40;99.90;;;;;;2097842;28;20035;-72
2023/10/17 00:14:19;;;;;;;11.88;9.90;;;8.50;99.90;;;;;;2097705;28;20105;-71
2023/10/17 00:15:35;;;;;;;12.18;10.82;;;8.40;99.90;;;;;;2102152;28;20040;-72
2023/10/17 00:16:37;;;;;;;13.32;11.60;;;8.50;99.90;;;;;;2094340;28;20068;-73
2023/10/17 00:17:37;;;;;;;17.08;12.45;;;8.40;99.90;;;;;;2093193;28;20056;-73
2023/10/17 00:18:39;;;;;;;12.57;10.93;;;8.50;99.90;;;;;;2101760;28;20488;-74
2023/10/17 00:19:41;;;;;;;11.80;10.63;;;8.50;99.90;;;;;;2099339;28;20025;-74
2023/10/17 00:20:44;;;;;;;14.38;11.70;;;8.50;99.90;;;;;;2101367;28;20031;-73
2023/10/17 00:21:45;;;;;;;15.52;11.95;;;8.50;99.90;;;;;;2098288;28;20631;-74
2023/10/17 00:22:46;;;;;;;14.60;11.90;;;8.50;99.90;;;;;;2097695;28;20496;-73
2023/10/17 00:23:47;;;;;;;14.50;10.55;;;8.50;99.90;;;;;;2098601;28;20032;-74
2023/10/17 00:24:48;;;;;;;11.20;10.07;;;8.50;99.90;;;;;;2097709;28;20511;-74
2023/10/17 00:25:49;;;;;;;11.57;10.38;;;8.50;99.90;;;;;;2099404;28;20596;-74
2023/10/17 00:26:49;;;;;;;12.63;10.15;;;8.50;99.90;;;;;;2103287;28;20081;-74
2023/10/17 00:27:50;;;;;;;12.32;11.02;;;8.60;99.90;;;;;;2100452;28;20498;-74
2023/10/17 00:28:53;;;;;;;13.43;12.07;;;8.60;99.90;;;;;;2099839;28;20678;-74
2023/10/17 00:29:53;;;;;;;17.70;12.43;;;8.50;99.90;;;;;;2100684;28;20032;-73
2023/10/17 00:30:54;;;;;;;14.77;13.20;;;8.60;99.90;;;;;;2100649;28;20103;-74
2023/10/17 00:31:55;;;;;;;14.35;12.63;;;8.60;99.90;;;;;;2100226;28;20036;-74
2023/10/17 00:32:56;;;;;;;14.38;11.77;;;8.50;99.90;;;;;;2101177;28;20020;-74
2023/10/17 00:34:00;;;;;;;15.45;12.55;;;8.60;99.90;;;;;;2102173;28;20032;-73
2023/10/17 00:35:13;;;;;;;16.33;12.25;;;8.60;99.90;;;;;;2102577;28;20028;-74
2023/10/17 00:36:16;;;;;;;13.80;12.35;;;8.60;99.90;;;;;;2101038;28;20031;-74
2023/10/17 00:37:19;;;;;;;15.52;12.00;;;8.60;99.90;;;;;;2101116;28;20017;-74
2023/10/17 00:38:20;;;;;;;13.25;11.95;;;8.60;99.90;;;;;;2101210;28;20411;-74
2023/10/17 00:40:51;;;;;;;14.18;11.27;;;8.60;99.90;;;;;;2100039;28;20624;-74
2023/10/17 00:42:27;;;;;;;11.65;9.30;;;8.60;99.90;;;;;;2099813;28;20044;-74
2023/10/17 00:43:13;;;;;;;10.23;9.02;;;8.60;99.90;;;;;;2099975;28;20044;-74
2023/10/17 00:44:15;;;;;;;10.73;9.55;;;8.60;99.90;;;;;;2101377;28;20698;-74
2023/10/17 00:45:17;;;;;;;10.73;9.45;;;8.60;99.90;;;;;;2096527;28;20074;-74
2023/10/17 00:46:17;;;;;;;11.35;9.40;;;8.60;99.90;;;;;;2103351;28;20031;-74
2023/10/17 00:47:22;;;;;;;11.77;10.32;;;8.60;99.90;;;;;;2101710;28;20028;-74
2023/10/17 00:48:25;;;;;;;10.38;9.27;;;8.60;99.90;;;;;;2103844;28;20038;-74
2023/10/17 00:49:29;;;;;;;11.13;9.18;;;8.60;99.90;;;;;;2103894;28;20417;-74
2023/10/17 00:50:30;;;;;;;11.50;10.40;;;8.70;99.90;;;;;;2101889;28;20032;-73
2023/10/17 00:51:32;;;;;;;10.75;9.70;;;8.70;99.90;;;;;;2103095;28;20120;-74
2023/10/17 00:52:34;;;;;;;10.10;9.10;;;8.60;99.90;;;;;;2102410;28;20119;-74
2023/10/17 00:53:39;;;;;;;11.38;9.32;;;8.70;99.90;;;;;;2103402;28;20016;-74
2023/10/17 00:54:39;;;;;;;9.90;8.95;;;8.70;99.90;;;;;;2100778;28;20032;-74
2023/10/17 00:55:50;;;;;;;10.77;9.68;;;8.70;99.90;;;;;;2100502;28;20503;-74
2023/10/17 00:56:56;;;;;;;10.90;9.50;;;8.70;99.90;;;;;;2099479;28;20111;-74
2023/10/17 00:57:58;;;;;;;10.32;9.32;;;8.70;99.90;;;;;;2103588;28;20046;-74
2023/10/17 00:59:00;;;;;;;12.45;10.40;;;8.70;99.90;;;;;;2102654;28;20031;-73
2023/10/17 01:01:32;;;;;;;10.85;9.70;;;8.70;99.90;;;;;;2100176;28;20093;-75
2023/10/17 01:02:32;;;;;;;11.50;9.75;;;8.70;99.90;;;;;;2101268;28;20025;-74
2023/10/17 01:03:33;;;;;;;12.02;10.82;;;8.70;99.90;;;;;;2100452;28;20025;-74
2023/10/17 01:04:40;;;;;;;11.25;9.70;;;8.70;99.90;;;;;;2101090;28;20039;-73
2023/10/17 01:07:11;;;;;;;10.38;9.38;;;8.70;99.90;;;;;;2101493;28;20063;-74
2023/10/17 01:08:12;;;;;;;10.52;9.43;;;8.70;99.90;;;;;;2102268;28;20562;-74
2023/10/17 01:09:18;;;;;;;10.45;9.32;;;8.70;99.90;;;;;;2104249;28;20046;-74
2023/10/17 01:10:24;;;;;;;10.48;9.32;;;8.70;99.90;;;;;;2102173;28;20024;-74
2023/10/17 01:11:27;;;;;;;10.35;9.10;;;8.70;99.90;;;;;;2100754;28;20137;-74
2023/10/17 01:12:30;;;;;;;11.50;10.30;;;8.70;99.90;;;;;;2098798;28;20033;-74
2023/10/17 01:13:30;;;;;;;10.32;9.25;;;8.70;99.90;;;;;;2099906;28;20503;-74
2023/10/17 01:14:32;;;;;;;9.57;8.60;;;8.70;99.90;;;;;;2100063;28;21262;-74
2023/10/17 01:15:33;;;;;;;9.80;8.80;;;8.70;99.90;;;;;;2100308;28;20030;-74
2023/10/17 01:16:34;;;;;;;11.45;10.18;;;8.70;99.90;;;;;;2100977;28;20153;-74
2023/10/17 01:17:35;;;;;;;11.52;10.13;;;8.70;99.90;;;;;;2102411;28;20114;-74
2023/10/17 01:18:36;;;;;;;11.25;9.95;;;8.70;99.90;;;;;;2095748;28;20036;-74
2023/10/17 01:19:37;;;;;;;10.57;9.52;;;8.70;99.90;;;;;;2102603;28;20031;-74
2023/10/17 01:20:38;;;;;;;12.50;10.75;;;8.70;99.90;;;;;;2099252;28;20063;-74
2023/10/17 01:21:40;;;;;;;11.05;9.95;;;8.70;99.90;;;;;;2099502;28;20459;-74
2023/10/17 01:22:42;;;;;;;10.73;9.50;;;8.70;99.90;;;;;;2101252;28;20028;-74
2023/10/17 01:23:43;;;;;;;9.85;8.85;;;8.70;99.90;;;;;;2094153;28;20024;-73
2023/10/17 01:24:44;;;;;;;11.68;10.50;;;8.80;99.90;;;;;;2102551;28;20067;-74
2023/10/17 01:25:46;;;;;;;12.52;11.23;;;8.80;99.90;;;;;;2100370;28;20023;-74
2023/10/17 01:26:47;;;;;;;12.80;10.55;;;8.80;99.90;;;;;;2102269;28;20103;-74
2023/10/17 01:27:49;;;;;;;11.02;9.95;;;8.70;99.90;;;;;;2098170;28;20025;-74
2023/10/17 01:28:51;;;;;;;11.02;9.93;;;8.80;99.90;;;;;;2098965;28;20024;-74
2023/10/17 01:29:52;;;;;;;14.13;11.43;;;8.80;99.90;;;;;;2100167;28;20036;-75
2023/10/17 01:30:55;;;;;;;11.55;10.27;;;8.80;99.90;;;;;;2098220;28;20025;-74
2023/10/17 01:31:57;;;;;;;12.23;10.38;;;8.70;99.90;;;;;;2100249;28;20055;-74
2023/10/17 01:32:58;;;;;;;11.60;9.77;;;8.70;99.90;;;;;;2100086;28;20064;-74
2023/10/17 01:33:59;;;;;;;13.73;9.98;;;8.80;99.90;;;;;;2099580;28;20039;-74
2023/10/17 01:35:01;;;;;;;11.82;10.65;;;8.70;99.90;;;;;;2100889;28;20029;-74
2023/10/17 01:36:04;;;;;;;12.93;10.80;;;8.70;99.90;;;;;;2098539;28;20023;-74
2023/10/17 01:37:07;;;;;;;12.35;10.75;;;8.80;99.90;;;;;;2099363;28;20040;-74
2023/10/17 01:38:09;;;;;;;11.82;10.60;;;8.80;99.90;;;;;;2100871;28;20364;-74
2023/10/17 01:39:10;;;;;;;12.00;10.75;;;8.80;99.90;;;;;;2091811;28;20050;-73
2023/10/17 01:40:32;;;;;;;12.35;11.07;;;8.80;99.90;;;;;;2100259;28;20024;-74
2023/10/17 01:41:32;;;;;;;13.43;11.32;;;8.80;99.90;;;;;;2099276;28;20075;-74
2023/10/17 01:42:33;;;;;;;11.65;9.88;;;8.80;99.90;;;;;;2097625;28;20024;-74
2023/10/17 01:43:40;;;;;;;13.00;10.80;;;8.70;99.90;;;;;;2100215;28;20077;-74
2023/10/17 01:44:40;;;;;;;12.57;11.32;;;8.70;99.90;;;;;;2093265;28;20036;-74
2023/10/17 01:45:42;;;;;;;12.50;11.20;;;8.80;99.90;;;;;;2094122;28;20082;-74
2023/10/17 01:46:43;;;;;;;11.57;9.90;;;8.80;99.90;;;;;;2093436;28;20058;-74
2023/10/17 01:47:44;;;;;;;11.43;9.93;;;8.70;99.90;;;;;;2096117;28;20027;-74
2023/10/17 01:48:47;;;;;;;13.25;11.02;;;8.80;99.90;;;;;;2094362;28;20044;-73
2023/10/17 01:49:48;;;;;;;12.10;10.90;;;8.80;99.90;;;;;;2105521;28;20055;-73
2023/10/17 01:50:48;;;;;;;15.23;11.50;;;8.70;99.90;;;;;;2103468;28;20692;-73
2023/10/17 01:51:49;;;;;;;12.27;11.00;;;8.70;99.90;;;;;;2101299;28;20085;-73
2023/10/17 01:52:53;;;;;;;12.23;11.00;;;8.80;99.90;;;;;;2102652;28;20640;-73
2023/10/17 01:53:54;;;;;;;11.63;10.43;;;8.80;99.90;;;;;;2101270;28;20556;-74
2023/10/17 01:54:54;;;;;;;13.75;11.07;;;8.70;99.90;;;;;;2097826;28;20131;-74
2023/10/17 01:56:06;;;;;;;11.73;10.05;;;8.80;99.90;;;;;;2101025;28;20037;-74
2023/10/17 01:57:08;;;;;;;13.13;10.90;;;8.80;99.90;;;;;;2097524;28;20442;-74
2023/10/17 01:58:10;;;;;;;11.98;10.68;;;8.70;99.90;;;;;;2092743;28;20075;-74
2023/10/17 01:59:13;;;;;;;13.15;10.77;;;8.80;99.90;;;;;;2095060;28;20035;-74
2023/10/17 02:01:36;;;;;;;11.88;9.85;;;8.80;99.90;;;;;;2100404;28;20019;-74
2023/10/17 02:02:37;;;;;;;12.90;11.15;;;8.80;99.90;;;;;;2101420;28;20028;-74
2023/10/17 02:03:37;;;;;;;13.43;11.57;;;8.80;99.90;;;;;;2100048;28;20056;-74
2023/10/17 02:04:38;;;;;;;11.90;10.65;;;8.80;99.90;;;;;;2103218;28;20024;-74
2023/10/17 02:05:39;;;;;;;13.40;11.52;;;8.80;99.90;;;;;;2101751;28;20024;-74
2023/10/17 02:06:42;;;;;;;12.82;11.00;;;8.80;99.90;;;;;;2101206;28;20486;-74
2023/10/17 02:07:43;;;;;;;11.38;10.27;;;8.80;99.90;;;;;;2101086;28;20020;-74
2023/10/17 02:08:44;;;;;;;16.15;11.57;;;8.80;99.90;;;;;;2100095;28;20123;-74
2023/10/17 02:09:45;;;;;;;12.85;10.88;;;8.80;99.90;;;;;;2101474;28;20028;-74
2023/10/17 02:10:48;;;;;;;12.70;10.73;;;8.80;99.90;;;;;;2100436;28;20701;-74
2023/10/17 02:12:00;;;;;;;11.60;10.45;;;8.80;99.90;;;;;;2100112;28;20073;-74
2023/10/17 02:13:03;;;;;;;11.60;10.00;;;8.80;99.90;;;;;;2097857;28;20488;-74
2023/10/17 02:14:06;;;;;;;10.57;9.48;;;8.80;99.90;;;;;;2098607;28;20035;-74
2023/10/17 02:15:08;;;;;;;13.38;10.18;;;8.80;99.90;;;;;;2097443;28;20085;-74
2023/10/17 02:16:15;;;;;;;10.80;9.02;;;8.80;99.90;;;;;;2100027;28;20024;-74
2023/10/17 02:17:18;;;;;;;10.77;9.63;;;8.80;99.90;;;;;;2101424;28;20039;-73
2023/10/17 02:18:18;;;;;;;10.95;9.65;;;8.80;99.90;;;;;;2095255;28;20052;-74
2023/10/17 02:19:23;;;;;;;12.60;11.02;;;8.80;99.90;;;;;;2099685;28;20031;-74
2023/10/17 02:20:30;;;;;;;11.68;8.82;;;8.80;99.90;;;;;;2098816;28;20412;-74
2023/10/17 02:21:31;;;;;;;10.73;9.40;;;8.80;99.90;;;;;;2100400;28;20097;-74
2023/10/17 02:22:31;;;;;;;12.93;9.93;;;8.80;99.90;;;;;;2098862;28;20020;-74
2023/10/17 02:23:40;;;;;;;10.73;9.68;;;8.80;99.90;;;;;;2107753;28;20641;-74
2023/10/17 02:24:40;;;;;;;11.70;10.52;;;8.80;99.90;;;;;;2098810;28;20043;-74
2023/10/17 02:25:41;;;;;;;12.07;10.23;;;8.80;99.90;;;;;;2092711;28;20499;-73
2023/10/17 02:26:42;;;;;;;12.55;10.63;;;8.80;99.90;;;;;;2101125;28;20419;-74
2023/10/17 02:27:44;;;;;;;12.02;10.90;;;8.80;99.90;;;;;;2102557;28;20530;-74
2023/10/17 02:28:46;;;;;;;12.32;11.07;;;8.80;99.90;;;;;;2100355;28;20039;-73
2023/10/17 02:29:48;;;;;;;11.63;10.43;;;8.90;99.90;;;;;;2102221;28;20032;-74
2023/10/17 02:30:52;;;;;;;10.95;9.48;;;8.80;99.90;;;;;;2103070;28;20235;-74
2023/10/17 02:31:54;;;;;;;11.35;10.30;;;8.80;99.90;;;;;;2098142;28;20028;-74
2023/10/17 02:32:55;;;;;;;12.23;10.85;;;8.80;99.90;;;;;;2100812;28;20089;-74
2023/10/17 02:33:56;;;;;;;11.30;10.20;;;8.80;99.90;;;;;;2100242;28;20380;-74
2023/10/17 02:34:58;;;;;;;11.13;10.02;;;8.80;99.90;;;;;;2097949;28;20078;-74
2023/10/17 02:36:19;;;;;;;11.68;9.57;;;8.80;99.90;;;;;;2101043;28;20025;-74
2023/10/17 02:37:29;;;;;;;12.50;10.75;;;8.80;99.90;;;;;;2099617;28;20040;-72
2023/10/17 02:38:30;;;;;;;11.05;9.45;;;8.80;99.90;;;;;;2099091;28;20024;-72
2023/10/17 02:39:30;;;;;;;15.82;10.30;;;8.80;99.90;;;;;;2098380;28;20051;-72
2023/10/17 02:40:34;;;;;;;13.50;10.70;;;8.80;99.90;;;;;;2098170;28;20046;-72
2023/10/17 02:41:37;;;;;;;12.68;10.77;;;8.70;99.90;;;;;;2101519;28;20067;-72
2023/10/17 02:42:37;;;;;;;11.15;10.02;;;8.80;99.90;;;;;;2102086;28;20114;-72
2023/10/17 02:43:40;;;;;;;12.30;11.00;;;8.80;99.90;;;;;;2097195;28;20025;-73
2023/10/17 02:44:43;;;;;;;12.55;9.80;;;8.80;99.90;;;;;;2099031;28;20033;-73
2023/10/17 02:45:44;;;;;;;14.15;10.80;;;8.80;99.90;;;;;;2104184;28;20034;-72
2023/10/17 02:46:44;;;;;;;13.50;11.05;;;8.70;99.90;;;;;;2106665;28;20038;-72
2023/10/17 02:47:45;;;;;;;11.60;10.38;;;8.80;99.90;;;;;;2100929;28;20037;-73
2023/10/17 02:48:46;;;;;;;11.35;10.25;;;8.70;99.90;;;;;;2097038;28;20352;-71
2023/10/17 02:49:47;;;;;;;10.45;9.45;;;8.70;99.90;;;;;;2098844;28;20025;-72
2023/10/17 02:51:01;;;;;;;11.73;10.52;;;8.70;99.90;;;;;;2097335;28;20023;-72
2023/10/17 02:52:02;;;;;;;11.23;10.05;;;8.70;99.90;;;;;;2097895;28;20111;-72
2023/10/17 02:53:02;;;;;;;10.35;9.32;;;8.70;99.90;;;;;;2091162;28;20029;-74
2023/10/17 02:54:05;;;;;;;10.93;9.25;;;8.80;99.90;;;;;;2098052;28;20027;-73
2023/10/17 02:55:08;;;;;;;11.35;10.10;;;8.70;99.90;;;;;;2098822;28;20024;-73
2023/10/17 02:56:19;;;;;;;10.65;9.32;;;8.80;99.90;;;;;;2097956;28;20029;-73
2023/10/17 02:57:19;;;;;;;11.07;10.02;;;8.70;99.90;;;;;;2098479;28;20024;-73
2023/10/17 02:58:20;;;;;;;11.88;10.43;;;8.70;99.90;;;;;;2099325;28;20032;-73
2023/10/17 02:59:21;;;;;;;9.63;8.73;;;8.70;99.90;;;;;;2097262;28;20392;-73
2023/10/17 03:00:25;;;;;;;9.95;8.93;;;8.70;99.90;;;;;;2098987;28;20016;-73
2023/10/17 03:01:27;;;;;;;10.05;9.05;;;8.70;99.90;;;;;;2098045;28;20030;-73
2023/10/17 03:02:37;;;;;;;10.45;9.35;;;8.70;99.90;;;;;;2098090;28;20173;-73
2023/10/17 03:03:39;;;;;;;10.40;9.07;;;8.70;99.90;;;;;;2101935;28;20028;-73
2023/10/17 03:04:42;;;;;;;12.70;8.75;;;8.60;99.90;;;;;;2100255;28;20039;-73
2023/10/17 03:05:44;;;;;;;10.75;9.52;;;8.60;99.90;;;;;;2097984;28;20539;-73
2023/10/17 03:06:45;;;;;;;12.45;10.40;;;8.60;99.90;;;;;;2098437;28;20108;-72
2023/10/17 03:07:49;;;;;;;13.43;11.23;;;8.60;99.90;;;;;;2101217;28;20028;-73
2023/10/17 03:08:51;;;;;;;12.15;11.00;;;8.70;99.90;;;;;;2103057;28;20106;-73
2023/10/17 03:09:52;;;;;;;11.63;10.52;;;8.70;99.90;;;;;;2097972;28;20071;-73
2023/10/17 03:10:58;;;;;;;11.63;10.52;;;8.60;99.90;;;;;;2093717;28;20028;-73
2023/10/17 03:13:05;;;;;;;10.00;9.10;;;8.70;99.90;;;;;;2100725;28;20028;-73
2023/10/17 03:15:46;;;;;;;10.13;9.23;;;8.60;99.90;;;;;;2095893;28;20036;-73
2023/10/17 03:16:52;;;;;;;10.85;9.73;;;8.60;99.90;;;;;;2096869;28;20086;-73
2023/10/17 03:18:00;;;;;;;10.75;9.40;;;8.60;99.90;;;;;;2093665;28;20455;-72
2023/10/17 03:19:06;;;;;;;12.38;9.32;;;8.60;99.90;;;;;;2096719;28;20199;-72
2023/10/17 03:20:10;;;;;;;10.85;9.63;;;8.60;99.90;;;;;;2096761;28;20224;-73
2023/10/17 03:21:12;;;;;;;11.30;10.20;;;8.50;99.90;;;;;;2090009;28;20024;-73
2023/10/17 03:22:26;;;;;;;12.27;9.70;;;8.60;99.90;;;;;;2099179;28;20020;-72
2023/10/17 03:23:29;;;;;;;12.75;11.45;;;8.60;99.90;;;;;;2098870;28;20020;-73
2023/10/17 03:24:38;;;;;;;13.32;11.02;;;8.60;99.90;;;;;;2099251;28;20043;-73
2023/10/17 03:25:40;;;;;;;11.60;9.85;;;8.50;99.90;;;;;;2105241;28;20028;-73
2023/10/17 03:26:42;;;;;;;11.85;10.63;;;8.50;99.90;;;;;;2098069;28;20033;-73
2023/10/17 03:27:48;;;;;;;11.43;10.27;;;8.50;99.90;;;;;;2097908;28;20531;-73
2023/10/17 03:28:50;;;;;;;10.50;9.40;;;8.50;99.90;;;;;;2096831;28;20707;-73
2023/10/17 03:29:51;;;;;;;9.45;8.55;;;8.50;99.90;;;;;;2096370;28;20024;-73
2023/10/17 03:30:51;;;;;;;10.55;9.07;;;8.50;99.90;;;;;;2097681;28;20032;-73
2023/10/17 03:31:59;;;;;;;10.60;9.60;;;8.50;99.90;;;;;;2099130;28;20459;-72
2023/10/17 03:34:04;;;;;;;9.82;8.93;;;8.50;99.90;;;;;;2102474;28;20037;-73
2023/10/17 03:35:07;;;;;;;11.10;8.27;;;8.50;99.90;;;;;;2099593;28;20027;-73
2023/10/17 03:36:34;;;;;;;9.20;8.27;;;8.50;99.90;;;;;;2099856;28;20029;-72
2023/10/17 03:37:29;;;;;;;11.00;9.40;;;8.50;99.90;;;;;;2098111;28;20029;-73
2023/10/17 03:38:32;;;;;;;9.38;8.07;;;8.50;99.90;;;;;;2097767;28;20119;-73
2023/10/17 03:39:45;;;;;;;11.95;9.35;;;8.50;99.90;;;;;;2097507;28;20071;-73
2023/10/17 03:40:53;;;;;;;10.88;9.88;;;8.50;99.90;;;;;;2097337;28;20024;-73
2023/10/17 03:41:56;;;;;;;10.18;9.02;;;8.50;99.90;;;;;;2099096;28;20387;-73
2023/10/17 03:43:08;;;;;;;8.98;8.07;;;8.50;99.90;;;;;;2097475;28;20141;-73
2023/10/17 03:44:09;;;;;;;10.32;9.05;;;8.50;99.90;;;;;;2096823;28;20098;-72
2023/10/17 03:45:17;;;;;;;10.60;8.55;;;8.40;99.90;;;;;;2096821;28;20031;-73
2023/10/17 03:46:19;;;;;;;12.85;10.07;;;8.40;99.90;;;;;;2097223;28;20497;-73
2023/10/17 03:47:22;;;;;;;10.65;9.50;;;8.40;99.90;;;;;;2097198;28;20519;-73
2023/10/17 03:48:24;;;;;;;10.95;9.15;;;8.50;99.90;;;;;;2096797;28;20021;-74
2023/10/17 03:49:36;;;;;;;10.13;9.23;;;8.40;99.90;;;;;;2097568;28;20453;-72
2023/10/17 03:50:43;;;;;;;11.65;9.32;;;8.50;99.90;;;;;;2096550;28;20035;-73
2023/10/17 03:51:46;;;;;;;9.23;7.68;;;8.40;99.90;;;;;;2096897;28;20047;-73
2023/10/17 03:52:47;;;;;;;10.02;8.90;;;8.40;99.90;;;;;;2099075;28;20754;-74
2023/10/17 03:53:53;;;;;;;9.85;8.85;;;8.40;99.90;;;;;;2099282;28;20912;-73
2023/10/17 03:54:55;;;;;;;12.32;9.10;;;8.40;99.90;;;;;;2099027;28;20028;-73
2023/10/17 03:56:00;;;;;;;8.65;7.85;;;8.40;99.90;;;;;;2096720;28;20526;-72
2023/10/17 03:57:02;;;;;;;9.52;7.70;;;8.40;99.90;;;;;;2098468;28;20035;-72
2023/10/17 03:58:18;;;;;;;10.70;8.40;;;8.40;99.90;;;;;;2099090;28;20028;-73
2023/10/17 03:59:30;;;;;;;10.07;8.77;;;8.40;99.90;;;;;;2100956;28;20672;-73
2023/10/17 04:00:41;;;;;;;10.35;9.27;;;8.40;99.90;;;;;;2095639;28;20046;-73
2023/10/17 04:01:47;;;;;;;;;;;8.40;99.90;;;;;;2100786;28;20052;-73
2023/10/17 04:02:49;;;;;;;8.93;8.13;;;8.30;99.90;;;;;;2098524;28;20514;-73
2023/10/17 04:03:54;;;;;;;11.05;9.25;;;8.40;99.90;;;;;;2098816;28;20025;-73
2023/10/17 04:04:54;;;;;;;9.38;8.48;;;8.30;99.90;;;;;;2096708;28;20071;-72
2023/10/17 04:07:09;;;;;;;10.15;9.25;;;8.40;99.90;;;;;;2101465;28;20462;-73
2023/10/17 04:08:11;;;;;;;9.90;9.02;;;8.40;99.90;;;;;;2099195;28;20017;-73
2023/10/17 04:10:29;;;;;;;8.77;7.93;;;8.40;99.90;;;;;;2101663;28;20024;-74
2023/10/17 04:11:36;;;;;;;9.48;8.48;;;8.40;99.90;;;;;;2099545;28;20032;-73
2023/10/17 04:12:48;;;;;;;9.35;8.45;;;8.40;99.90;;;;;;2100632;28;20055;-73
2023/10/17 04:13:57;;;;;;;9.85;8.90;;;8.40;99.90;;;;;;2100742;28;20603;-73
2023/10/17 04:15:04;;;;;;;9.48;8.48;;;8.40;99.90;;;;;;2101386;28;20070;-73
2023/10/17 04:16:10;;;;;;;10.40;8.60;;;8.40;99.90;;;;;;2098031;28;20046;-73
2023/10/17 04:17:14;;;;;;;10.23;8.48;;;8.40;99.90;;;;;;2101179;28;20024;-73
2023/10/17 04:18:14;;;;;;;11.20;9.00;;;8.40;99.90;;;;;;2103859;28;20031;-73
2023/10/17 04:19:18;;;;;;;10.65;9.65;;;8.40;99.90;;;;;;2103026;28;20110;-73
2023/10/17 04:20:22;;;;;;;10.50;9.40;;;8.40;99.90;;;;;;2107598;28;20097;-73
2023/10/17 04:21:35;;;;;;;9.50;8.52;;;8.40;99.90;;;;;;2100107;28;20031;-73
2023/10/17 04:22:38;;;;;;;9.88;8.88;;;8.40;99.90;;;;;;2098157;28;20037;-73
2023/10/17 04:23:38;;;;;;;9.00;8.05;;;8.40;99.90;;;;;;2099726;28;20028;-73
2023/10/17 04:24:39;;;;;;;11.90;9.18;;;8.40;99.90;;;;;;2099199;28;20036;-72
2023/10/17 04:25:40;;;;;;;9.25;8.35;;;8.40;99.90;;;;;;2101423;28;20289;-73
2023/10/17 04:26:44;;;;;;;9.02;8.15;;;8.40;99.90;;;;;;2091481;28;20032;-72
2023/10/17 04:27:45;;;;;;;11.98;9.50;;;8.40;99.90;;;;;;2096528;28;20033;-73
2023/10/17 04:28:50;;;;;;;10.13;9.10;;;8.40;99.90;;;;;;2094617;28;20126;-73
2023/10/17 04:29:50;;;;;;;10.93;9.20;;;8.40;99.90;;;;;;2099578;28;20833;-73
2023/10/17 04:30:56;;;;;;;10.48;9.48;;;8.40;99.90;;;;;;2103544;28;20048;-73
2023/10/17 04:32:01;;;;;;;12.77;8.50;;;8.40;99.90;;;;;;2103022;28;20032;-72
2023/10/17 04:33:14;;;;;;;12.15;8.52;;;8.40;99.90;;;;;;2102968;28;20032;-73
2023/10/17 04:34:14;;;;;;;8.70;7.80;;;8.40;99.90;;;;;;2098312;28;20017;-73
2023/10/17 04:35:20;;;;;;;10.02;9.02;;;8.40;99.90;;;;;;2098559;28;20026;-73
2023/10/17 04:36:20;;;;;;;10.27;9.23;;;8.40;99.90;;;;;;2099407;28;20484;-73
2023/10/17 04:37:24;;;;;;;8.52;7.82;;;8.40;99.90;;;;;;2102703;28;20016;-72
2023/10/17 04:40:50;;;;;;;13.98;12.57;;;8.40;99.90;;;;;;2098165;28;21068;-73
2023/10/17 04:45:04;;;;;;;12.73;11.48;;;8.40;99.90;;;;;;2099572;28;20031;-73
2023/10/17 04:46:08;;;;;;;12.13;11.02;;;8.40;99.90;;;;;;2104009;28;20031;-73
2023/10/17 04:47:25;;;;;;;12.85;11.50;;;8.40;99.90;;;;;;2101729;28;20417;-73
2023/10/17 04:48:34;;;;;;;13.52;10.90;;;8.40;99.90;;;;;;2102758;28;20375;-74
2023/10/17 04:49:39;;;;;;;11.38;10.27;;;8.30;99.90;;;;;;2100683;28;20027;-73
2023/10/17 04:50:56;;;;;;;11.85;10.65;;;8.40;99.90;;;;;;2098406;28;20616;-73
2023/10/17 04:52:09;;;;;;;11.52;10.43;;;8.40;99.90;;;;;;2100682;28;20028;-73
2023/10/17 04:53:19;;;;;;;11.27;10.23;;;8.40;99.90;;;;;;2097532;28;20039;-73
2023/10/17 04:54:29;;;;;;;10.18;9.20;;;8.30;99.90;;;;;;2097856;28;20053;-73
2023/10/17 04:55:40;;;;;;;10.50;8.73;;;8.30;99.90;;;;;;2102203;28;20028;-72
2023/10/17 04:56:55;;;;;;;12.50;10.93;;;8.40;99.90;;;;;;2101259;28;20419;-72
2023/10/17 04:57:59;;;;;;;9.82;8.85;;;8.40;99.90;;;;;;2102939;28;20032;-72
2023/10/17 04:59:02;;;;;;;12.13;10.63;;;8.40;99.90;;;;;;2095025;28;20511;-72
2023/10/17 05:00:21;;;;;;;11.05;9.77;;;8.40;99.90;;;;;;2103085;28;20121;-72
2023/10/17 05:02:54;;;;;;;13.40;10.05;;;8.40;99.90;;;;;;2098490;28;20024;-73
2023/10/17 05:03:55;;;;;;;11.15;9.98;;;8.40;99.90;;;;;;2099607;28;20050;-72
2023/10/17 05:07:16;;;;;;;12.90;9.85;;;8.40;99.90;;;;;;2099008;28;20062;-72
2023/10/17 05:08:32;;;;;;;12.75;11.45;;;8.40;99.90;;;;;;2098111;28;20471;-72
2023/10/17 06:16:59;;;;;;;12.30;11.10;;;8.30;99.90;;;;;;2100982;28;20032;-74
2023/10/17 06:18:01;;;;;;;12.57;10.95;;;8.30;99.90;;;;;;2104004;28;20035;-74
2023/10/17 06:19:02;;;;;;;12.20;10.90;;;8.30;99.90;;;;;;2101769;28;20028;-74
2023/10/17 06:20:04;;;;;;;12.93;11.60;;;8.40;99.90;;;;;;2102439;28;20352;-73
2023/10/17 06:24:06;;;;;;;12.98;11.57;;;8.40;99.90;;;;;;2100043;28;20629;-73
2023/10/17 06:24:45;;;;;;;11.85;10.60;;;8.40;99.90;;;;;;2099604;28;20060;-74
2023/10/17 06:26:59;;;;;;;12.75;11.55;;;8.40;99.90;;;;;;2100587;28;20480;-73
2023/10/17 06:30:29;;;;;;;13.90;12.48;;;8.40;99.90;;;;;;2098537;28;20306;-73
2023/10/17 06:31:42;;;;;;;;;;;8.50;99.90;;;;;;2098981;28;21357;-73
2023/10/17 06:32:48;;;;;;;12.60;11.30;;;8.40;99.90;;;;;;2096079;28;19915;-73
2023/10/17 06:33:52;;;;;;;14.02;11.07;;;8.40;99.90;;;;;;2098744;28;20139;-73
2023/10/17 06:35:03;;;;;;;12.32;11.10;;;8.40;99.90;;;;;;2103094;28;20031;-72
2023/10/17 06:36:13;;;;;;;11.65;10.43;;;8.40;99.90;;;;;;2100017;28;20020;-74
2023/10/17 06:37:19;;;;;;;14.93;11.77;;;8.50;99.90;;;;;;2097084;28;20035;-73
2023/10/17 06:38:27;;;;;;;12.25;10.93;;;8.40;99.90;;;;;;2098577;28;20025;-74
2023/10/17 06:39:37;;;;;;;12.00;10.82;;;8.50;99.90;;;;;;2097555;28;20094;-74
2023/10/17 06:40:45;;;;;;;15.65;10.82;;;8.50;99.90;;;;;;2094864;28;20536;-74
2023/10/17 06:41:50;;;;;;;14.82;10.98;;;8.50;99.90;;;;;;2100918;28;20070;-74
2023/10/17 06:42:59;;;;;;;11.30;10.20;;;8.50;99.90;;;;;;2097348;28;20099;-73
2023/10/17 06:44:05;;;;;;;12.32;11.13;;;8.50;99.90;;;;;;2098865;28;20016;-74
2023/10/17 06:45:10;;;;;;;12.35;11.05;;;8.50;99.90;;;;;;2098460;28;20081;-74
2023/10/17 06:46:14;;;;;;;12.20;10.45;;;8.50;99.90;;;;;;2097017;28;20086;-74
2023/10/17 06:47:17;;;;;;;13.63;10.80;;;8.60;99.90;;;;;;2097550;28;20020;-74
2023/10/17 06:48:18;;;;;;;11.88;10.68;;;8.60;99.90;;;;;;2098485;28;20029;-72
2023/10/17 06:52:07;;;;;;;14.75;10.68;;;8.60;99.90;;;;;;2098073;28;20036;-73
2023/10/17 06:53:11;;;;;;;13.90;11.25;;;8.60;99.90;;;;;;2097821;28;20021;-74
2023/10/17 06:54:14;;;;;;;13.38;10.77;;;8.60;99.90;;;;;;2097702;28;20016;-74
2023/10/17 06:55:21;;;;;;;12.93;10.85;;;8.60;99.90;;;;;;2097638;28;20028;-74
2023/10/17 06:56:25;;;;;;;12.45;11.18;;;8.60;99.90;;;;;;2097392;28;20020;-73
2023/10/17 06:57:33;;;;;;;14.77;11.55;;;8.60;99.90;;;;;;2098683;28;20044;-73
2023/10/17 06:58:33;;;;;;;12.70;11.38;;;8.60;99.90;;;;;;2098046;28;20164;-73
2023/10/17 06:59:35;;;;;;;12.35;10.75;;;8.60;99.90;;;;;;2100120;28;20025;-73
2023/10/17 07:00:50;;;;;;;12.82;10.38;;;8.60;99.90;;;;;;2096707;28;20858;-74
2023/10/17 07:02:03;;;;;;;14.68;11.88;;;8.70;99.90;;;;;;2097722;28;20032;-74
2023/10/17 07:03:04;;;;;;;13.52;12.00;;;8.70;99.90;;;;;;2097303;28;20027;-74
2023/10/17 07:04:11;;;;;;;14.07;12.63;;;8.70;99.90;;;;;;2100407;28;20032;-73
2023/10/17 07:05:14;;;;;;;18.63;14.02;;;8.70;99.90;;;;;;2093461;28;20148;-73
2023/10/17 07:06:15;;;;;;;17.52;13.13;;;8.70;99.90;;;;;;2097646;28;20065;-73
2023/10/17 07:07:22;;;;;;;14.23;12.30;;;8.80;99.90;;;;;;2098973;28;20017;-73
2023/10/17 07:08:22;;;;;;;14.82;13.15;;;8.80;99.90;;;;;;2097402;28;20172;-73
2023/10/17 07:09:25;;;;;;;18.92;13.77;;;8.80;99.90;;;;;;2099621;28;20054;-73